Historyczne dane pomiarowe

Dodano dane terminowe – wersja testowa.

Dane z okresu 1951-2019

Wersja bazy: 1.34 [2019-03-16, lista zmian], aktualizacja planowana na 2019-04-15

Dane meteo z obszaru Polski uzyskane na podstawie danych udostępnionych przez Instytut Meteorologii i Gospodarki Wodnej – Państwowy Instytut Badawczy.

 

Wybierz Datę:    

       

TemperaturaWilgotnośćZachmurzenieWiatrCiśnienieWidzialnośćZjawiska
 Data    tng td wb rh cc ccl cl cm ch dir g1 g2 mslp ppp      
1999-07-03 00:00:00 16.8--- 16.0 16.395wxwxwx2wx--1016.5 992.2 0.0---wx
1999-07-03 01:00:00 16.5--- 15.7 16.095wxwxwxwx1wx--1016.7 992.3----wx
1999-07-03 02:00:00 15.3--- 14.1 14.693wxwxwxwx1wx--1016.8 992.3----wx
1999-07-03 03:00:00 14.4--- 13.2 13.793wxwxwx2wx--1017.2 992.6----wx
1999-07-03 04:00:00 14.7--- 14.0 14.396wxwxwxwx1wx--1017.1 992.6----wx
1999-07-03 05:00:00 15.8--- 15.0 15.395wxwxwx1wx--1017.3 992.9----wx
1999-07-03 06:00:00 17.6--- 14.5 15.782wxwx1wx--1017.4 993.1 0.0---wx
1999-07-03 07:00:00 20.0--- 15.6 17.276wxwxwx1wx--1017.1 993.0----wx
1999-07-03 08:00:00 21.0--- 14.6 17.067wxwxwx2wx--1017.0 993.0----wx
1999-07-03 09:00:00 22.2--- 14.2 17.260wxwxwx1wx--1016.9 993.0----wx
1999-07-03 10:00:00 22.4--- 14.0 17.259wxwxwx2wx--1016.8 992.9----wx
1999-07-03 11:00:00 23.2--- 13.9 17.456wxwxwx2wx--1016.4 992.6----wx
1999-07-03 12:00:00 23.8--- 14.6 18.056wxwxwx2wx--1016.1 992.3 0.0---wx
1999-07-03 13:00:00 25.0--- 14.6 18.452wxwxwx1wx--1015.6 991.9----wx
1999-07-03 14:00:00 25.4--- 13.9 18.249wxwxwx1wx--1015.2 991.6----wx
1999-07-03 15:00:00 25.2--- 14.4 18.451wxwxwx1wx--1014.9 991.3----wx
1999-07-03 16:00:00 25.4--- 13.9 18.249wxwxwx1wx--1014.7 991.1----wx
1999-07-03 17:00:00 25.2--- 13.7 18.049wxwx1wx--1014.5 990.9----wx
1999-07-03 18:00:00 24.5--- 15.8 18.958wxwx1wx--1014.4 990.7 0.0---wx
1999-07-03 19:00:00 22.0--- 14.7 17.463wxwx1wx--1014.4 990.5----wx
1999-07-03 20:00:00 18.8--- 14.6 16.277wxwx1wx--1015.1 991.0----wx
1999-07-03 21:00:00 16.4--- 14.4 15.288wxwx1wx--1015.2 990.9----wx
1999-07-03 22:00:00 15.2--- 13.7 14.391wxwx0wx--1015.5 991.1----wx
1999-07-03 23:00:00 15.1--- 13.6 14.291wxwx0wx--1015.3 990.9----wx

 

Źródłem pochodzenia danych jest Instytut Meteorologii i Gospodarki Wodnej – Państwowy Instytut Badawczy. Dane Instytutu Meteorologii i Gospodarki Wodnej – Państwowego Instytutu Badawczego zostały przetworzone.

Dane źródłowe można odnaleźć na stronie https://dane.imgw.pl